Gerton, NC

02:22 EDT, 22. Oktaber, 2014 (GMT -0400)
Little Bearwallow MOUNTAIN | Change Station
CLOSE
Current Station
Personal Weather Stations
Location: Hendersonville, NC
Böyiklik: 2820 ft
Nearby Weather Stations

Elev 2820 ft 35.44 °N, 82.35 °W | Updated 38 seconds ago

Öleşçä bolıtlı
Öleşçä bolıtlı
42.0 °F
Feels Like 42 °F
N
1.0
Cel Üzgärüçän Cel from KKÇ
Gusts 0.0 mil/seğ

Bogön
High -- | Low -- °F
--% Chance of Precip.
Kiçä
High -- | Low -- °F
Precip. -- in
7:41 AM 6:45 PM
Waning Crescent, 3% visible
Basım 30.01 in
Köriniwçenlik 10.0 mil
Bolıtlı Bik bolıtlı 4100 ft
Cel köçi 42 °F
Çıq noqtası 36 °F
Dımlıq 78%
Rainfall 0.00 in
Qar bieklege Not available.
UV 0 out of 12
Pollen 2.90 out of 12
Ozone Good
PM2.5 Good
Flu Activity Sporadic
METAR KAVL 220554Z AUTO 33006KT 10SM BKN041 08/01 A3005 RMK AO2 SLP162 T00830011 10133 20078 51004

More Conditions Fewer Conditions

Basım 30.01 in
Köriniwçenlik 10.0 mil
Bolıtlı Bik bolıtlı 4100 ft
Cel köçi 42 °F
Çıq noqtası 36 °F
Dımlıq 78%
Rainfall 0.00 in
Qar bieklege Not available.
UV 0 out of 12
Pollen 2.90 out of 12
Ozone Good
PM2.5 Good
Flu Activity Sporadic
METAR KAVL 220554Z AUTO 33006KT 10SM BKN041 08/01 A3005 RMK AO2 SLP162 T00830011 10133 20078 51004

More Conditions Fewer Conditions

10-Day Weather Forecast

Almanac

Kükbelem

Oct. 22, 2014 Rise Set
Anıñ çağı 07:41 EDT 18:45 EDT
Tormışlı qaranğı 07:15 EDT 19:11 EDT
Diñgezdä qarañğı 06:46 EDT 19:40 EDT
Küktä qarañğı 06:16 EDT 20:10 EDT
Ay 06:24 EDT 18:09 EDT
Kürenmäle yaqtı ozınlığı 11h 55m
Kön ozınlığı
11h 03m
Tomorrow will be 2m 5s shorter.
Waning Crescent, 3% of the Moon is Illuminated
Bogön
Waning Crescent
Oct 23
New
Oct 30
Berençe çirek
Nov 6
Tulı
Nov 14
Soñğı çirek

Today's Extremes

State Highs State Lows

Community

WunderPhotos

Upload Photos

1,763,885 photos uploaded!

Nearby

Hawa Sífatı

  Hawa Sífatı HS İndekse Pıçratqıç
Kiçä Good
OZONE
Kiçä Good
PM2.5
Eligi Good
PM2.5
Eligi Good
OZONE
Çerşembe Good
OZONE
Çerşembe Good
PM2.5
Pencişembe Good
PM2.5
Pencişembe Good
OZONE
Comğa Good
PM2.5
Comğa Good
OZONE

Qar terenligi

Station Depth Böyiklik
No new snow has been reported.

Earthquake Activity

Qala Distance Mag. Time & Date
No recent earthquake activity has been reported nearby.
Minimum magnitude displayed is 2.5.

Coastal Water Temperatures

Orın Cılılıq
No Stations Reporting

Nearby Weather Stations